sensor_id;sensor_type;location;lat;lon;timestamp;pressure;altitude;pressure_sealevel;temperature;humidity
4767;BME280;2397;53.576;9.746;2023-01-30T00:01:05;100965.16;;;2.61;100.00
4767;BME280;2397;53.576;9.746;2023-01-30T00:03:32;100962.69;;;2.63;100.00
4767;BME280;2397;53.576;9.746;2023-01-30T00:05:59;100954.88;;;2.60;100.00
4767;BME280;2397;53.576;9.746;2023-01-30T00:08:25;100964.31;;;2.61;100.00
4767;BME280;2397;53.576;9.746;2023-01-30T00:10:52;100946.34;;;2.59;100.00
4767;BME280;2397;53.576;9.746;2023-01-30T00:13:18;100950.69;;;2.62;100.00
4767;BME280;2397;53.576;9.746;2023-01-30T00:15:46;100948.25;;;2.63;100.00
4767;BME280;2397;53.576;9.746;2023-01-30T00:18:13;100970.81;;;2.72;100.00
4767;BME280;2397;53.576;9.746;2023-01-30T00:20:39;100966.50;;;2.71;100.00
4767;BME280;2397;53.576;9.746;2023-01-30T00:23:06;100940.94;;;2.71;100.00
4767;BME280;2397;53.576;9.746;2023-01-30T00:25:32;100935.00;;;2.72;100.00
4767;BME280;2397;53.576;9.746;2023-01-30T00:27:59;100925.75;;;2.74;100.00
4767;BME280;2397;53.576;9.746;2023-01-30T00:30:26;100922.38;;;2.75;100.00
4767;BME280;2397;53.576;9.746;2023-01-30T00:32:57;100912.00;;;2.72;100.00
4767;BME280;2397;53.576;9.746;2023-01-30T00:35:24;100889.81;;;2.71;100.00
4767;BME280;2397;53.576;9.746;2023-01-30T00:37:58;100892.59;;;2.76;100.00
4767;BME280;2397;53.576;9.746;2023-01-30T00:40:26;100877.41;;;2.79;100.00
4767;BME280;2397;53.576;9.746;2023-01-30T00:42:53;100855.25;;;2.79;100.00
4767;BME280;2397;53.576;9.746;2023-01-30T00:45:40;100866.44;;;2.81;100.00
4767;BME280;2397;53.576;9.746;2023-01-30T00:48:25;100863.97;;;2.83;100.00
4767;BME280;2397;53.576;9.746;2023-01-30T00:50:52;100847.88;;;2.86;100.00
4767;BME280;2397;53.576;9.746;2023-01-30T00:53:19;100825.91;;;2.89;100.00
4767;BME280;2397;53.576;9.746;2023-01-30T00:55:45;100838.88;;;2.94;100.00
4767;BME280;2397;53.576;9.746;2023-01-30T00:58:12;100818.28;;;2.91;100.00
4767;BME280;2397;53.576;9.746;2023-01-30T01:00:38;100821.78;;;2.93;100.00
4767;BME280;2397;53.576;9.746;2023-01-30T01:03:06;100814.38;;;2.99;100.00
4767;BME280;2397;53.576;9.746;2023-01-30T01:05:32;100819.66;;;3.02;100.00
4767;BME280;2397;53.576;9.746;2023-01-30T01:07:59;100807.00;;;3.05;100.00
4767;BME280;2397;53.576;9.746;2023-01-30T01:10:25;100807.16;;;3.08;100.00
4767;BME280;2397;53.576;9.746;2023-01-30T01:12:52;100806.19;;;3.06;100.00
4767;BME280;2397;53.576;9.746;2023-01-30T01:15:20;100779.03;;;3.08;100.00
4767;BME280;2397;53.576;9.746;2023-01-30T01:17:47;100777.53;;;3.13;100.00
4767;BME280;2397;53.576;9.746;2023-01-30T01:20:14;100773.38;;;3.15;100.00
4767;BME280;2397;53.576;9.746;2023-01-30T01:22:40;100768.38;;;3.19;100.00
4767;BME280;2397;53.576;9.746;2023-01-30T01:25:08;100769.31;;;3.21;100.00
4767;BME280;2397;53.576;9.746;2023-01-30T01:27:36;100753.22;;;3.23;100.00
4767;BME280;2397;53.576;9.746;2023-01-30T01:30:04;100757.44;;;3.23;100.00
4767;BME280;2397;53.576;9.746;2023-01-30T01:32:31;100737.00;;;3.23;100.00
4767;BME280;2397;53.576;9.746;2023-01-30T01:34:57;100752.69;;;3.30;100.00
4767;BME280;2397;53.576;9.746;2023-01-30T01:37:24;100747.56;;;3.30;100.00
4767;BME280;2397;53.576;9.746;2023-01-30T01:39:50;100742.53;;;3.32;100.00
4767;BME280;2397;53.576;9.746;2023-01-30T01:42:36;100742.53;;;3.32;100.00
4767;BME280;2397;53.576;9.746;2023-01-30T01:45:16;100726.41;;;3.34;100.00
4767;BME280;2397;53.576;9.746;2023-01-30T01:48:04;100723.25;;;3.40;100.00
4767;BME280;2397;53.576;9.746;2023-01-30T01:51:10;100714.75;;;3.41;100.00
4767;BME280;2397;53.576;9.746;2023-01-30T01:53:52;100715.50;;;3.39;100.00
4767;BME280;2397;53.576;9.746;2023-01-30T01:56:21;100711.22;;;3.38;100.00
4767;BME280;2397;53.576;9.746;2023-01-30T01:58:51;100708.72;;;3.39;100.00
4767;BME280;2397;53.576;9.746;2023-01-30T02:01:18;100705.31;;;3.40;100.00
4767;BME280;2397;53.576;9.746;2023-01-30T02:03:48;100713.13;;;3.43;100.00
4767;BME280;2397;53.576;9.746;2023-01-30T02:06:16;100698.53;;;3.41;100.00
4767;BME280;2397;53.576;9.746;2023-01-30T02:08:49;100707.88;;;3.40;100.00
4767;BME280;2397;53.576;9.746;2023-01-30T02:13:49;100690.81;;;3.39;100.00
4767;BME280;2397;53.576;9.746;2023-01-30T02:16:16;100686.50;;;3.38;100.00
4767;BME280;2397;53.576;9.746;2023-01-30T02:18:44;100677.13;;;3.39;100.00
4767;BME280;2397;53.576;9.746;2023-01-30T02:21:50;100682.63;;;3.48;100.00
4767;BME280;2397;53.576;9.746;2023-01-30T02:24:43;100681.75;;;3.47;100.00
4767;BME280;2397;53.576;9.746;2023-01-30T02:27:22;100665.66;;;3.50;100.00
4767;BME280;2397;53.576;9.746;2023-01-30T02:30:09;100660.59;;;3.51;100.00
4767;BME280;2397;53.576;9.746;2023-01-30T02:32:49;100676.88;;;3.54;100.00
4767;BME280;2397;53.576;9.746;2023-01-30T02:35:53;100673.50;;;3.55;100.00
4767;BME280;2397;53.576;9.746;2023-01-30T02:41:05;100673.88;;;3.64;100.00
4767;BME280;2397;53.576;9.746;2023-01-30T02:43:58;100645.97;;;3.70;100.00
4767;BME280;2397;53.576;9.746;2023-01-30T02:46:31;100639.41;;;3.77;100.00
4767;BME280;2397;53.576;9.746;2023-01-30T02:49:08;100628.47;;;3.81;100.00
4767;BME280;2397;53.576;9.746;2023-01-30T02:51:38;100618.28;;;3.82;100.00
4767;BME280;2397;53.576;9.746;2023-01-30T02:54:06;100619.34;;;3.87;100.00
4767;BME280;2397;53.576;9.746;2023-01-30T02:56:56;100622.91;;;3.91;100.00
4767;BME280;2397;53.576;9.746;2023-01-30T02:59:39;100616.13;;;3.93;100.00
4767;BME280;2397;53.576;9.746;2023-01-30T03:02:37;100619.72;;;3.97;100.00
4767;BME280;2397;53.576;9.746;2023-01-30T03:05:36;100614.44;;;3.94;100.00
4767;BME280;2397;53.576;9.746;2023-01-30T03:08:24;100608.75;;;4.01;100.00
4767;BME280;2397;53.576;9.746;2023-01-30T03:11:01;100604.41;;;3.98;100.00
4767;BME280;2397;53.576;9.746;2023-01-30T03:13:40;100594.22;;;4.00;100.00
4767;BME280;2397;53.576;9.746;2023-01-30T03:16:17;100601.91;;;4.00;100.00
4767;BME280;2397;53.576;9.746;2023-01-30T03:18:47;100608.84;;;4.04;100.00
4767;BME280;2397;53.576;9.746;2023-01-30T03:21:14;100595.34;;;4.08;100.00
4767;BME280;2397;53.576;9.746;2023-01-30T03:23:43;100599.56;;;4.06;100.00
4767;BME280;2397;53.576;9.746;2023-01-30T03:26:19;100590.28;;;4.10;100.00
4767;BME280;2397;53.576;9.746;2023-01-30T03:28:48;100578.44;;;4.12;100.00
4767;BME280;2397;53.576;9.746;2023-01-30T03:31:14;100582.59;;;4.10;100.00
4767;BME280;2397;53.576;9.746;2023-01-30T03:33:41;100582.59;;;4.10;100.00
4767;BME280;2397;53.576;9.746;2023-01-30T03:36:08;100577.47;;;4.10;100.00
4767;BME280;2397;53.576;9.746;2023-01-30T03:38:35;100571.56;;;4.11;100.00
4767;BME280;2397;53.576;9.746;2023-01-30T03:41:02;100572.41;;;4.11;100.00
4767;BME280;2397;53.576;9.746;2023-01-30T03:43:30;100563.88;;;4.11;100.00
4767;BME280;2397;53.576;9.746;2023-01-30T03:45:56;100576.03;;;4.16;100.00
4767;BME280;2397;53.576;9.746;2023-01-30T03:48:22;100558.09;;;4.16;100.00
4767;BME280;2397;53.576;9.746;2023-01-30T03:50:49;100561.63;;;4.20;100.00
4767;BME280;2397;53.576;9.746;2023-01-30T03:53:15;100563.44;;;4.22;100.00
4767;BME280;2397;53.576;9.746;2023-01-30T03:55:43;100557.50;;;4.24;100.00
4767;BME280;2397;53.576;9.746;2023-01-30T03:58:10;100571.41;;;4.30;100.00
4767;BME280;2397;53.576;9.746;2023-01-30T04:00:36;100572.34;;;4.32;100.00
4767;BME280;2397;53.576;9.746;2023-01-30T04:03:03;100559.63;;;4.35;100.00
4767;BME280;2397;53.576;9.746;2023-01-30T04:05:29;100566.50;;;4.36;100.00
4767;BME280;2397;53.576;9.746;2023-01-30T04:07:56;100555.38;;;4.36;100.00
4767;BME280;2397;53.576;9.746;2023-01-30T04:10:23;100568.19;;;4.36;100.00
4767;BME280;2397;53.576;9.746;2023-01-30T04:12:50;100561.41;;;4.38;100.00
4767;BME280;2397;53.576;9.746;2023-01-30T04:15:16;100562.41;;;4.42;100.00
4767;BME280;2397;53.576;9.746;2023-01-30T04:17:43;100565.84;;;4.42;100.00
4767;BME280;2397;53.576;9.746;2023-01-30T04:20:10;100560.00;;;4.46;100.00
4767;BME280;2397;53.576;9.746;2023-01-30T04:22:36;100567.00;;;4.50;100.00
4767;BME280;2397;53.576;9.746;2023-01-30T04:25:03;100553.97;;;4.44;100.00
4767;BME280;2397;53.576;9.746;2023-01-30T04:27:30;100542.94;;;4.47;100.00
4767;BME280;2397;53.576;9.746;2023-01-30T04:29:56;100542.06;;;4.46;100.00
4767;BME280;2397;53.576;9.746;2023-01-30T04:32:25;100543.59;;;4.41;100.00
4767;BME280;2397;53.576;9.746;2023-01-30T04:34:51;100542.81;;;4.44;100.00
4767;BME280;2397;53.576;9.746;2023-01-30T04:37:17;100560.06;;;4.48;100.00
4767;BME280;2397;53.576;9.746;2023-01-30T04:39:44;100552.22;;;4.43;100.00
4767;BME280;2397;53.576;9.746;2023-01-30T04:42:10;100559.69;;;4.37;100.00
4767;BME280;2397;53.576;9.746;2023-01-30T04:44:37;100545.88;;;4.33;100.00
4767;BME280;2397;53.576;9.746;2023-01-30T04:47:03;100551.06;;;4.35;100.00
4767;BME280;2397;53.576;9.746;2023-01-30T04:49:29;100550.16;;;4.33;100.00
4767;BME280;2397;53.576;9.746;2023-01-30T04:51:56;100544.91;;;4.30;100.00
4767;BME280;2397;53.576;9.746;2023-01-30T04:54:22;100543.16;;;4.29;100.00
4767;BME280;2397;53.576;9.746;2023-01-30T04:56:48;100552.59;;;4.30;100.00
4767;BME280;2397;53.576;9.746;2023-01-30T04:59:16;100560.22;;;4.28;100.00
4767;BME280;2397;53.576;9.746;2023-01-30T05:01:42;100557.84;;;4.33;100.00
4767;BME280;2397;53.576;9.746;2023-01-30T05:04:09;100551.75;;;4.31;100.00
4767;BME280;2397;53.576;9.746;2023-01-30T05:06:35;100554.31;;;4.31;100.00
4767;BME280;2397;53.576;9.746;2023-01-30T05:09:03;100548.38;;;4.32;100.00
4767;BME280;2397;53.576;9.746;2023-01-30T05:11:29;100549.94;;;4.27;100.00
4767;BME280;2397;53.576;9.746;2023-01-30T05:13:57;100568.78;;;4.29;100.00
4767;BME280;2397;53.576;9.746;2023-01-30T05:16:24;100561.09;;;4.29;100.00
4767;BME280;2397;53.576;9.746;2023-01-30T05:18:51;100550.78;;;4.27;100.00
4767;BME280;2397;53.576;9.746;2023-01-30T05:21:23;100546.41;;;4.25;100.00
4767;BME280;2397;53.576;9.746;2023-01-30T05:23:51;100536.00;;;4.20;100.00
4767;BME280;2397;53.576;9.746;2023-01-30T05:26:18;100545.44;;;4.21;100.00
4767;BME280;2397;53.576;9.746;2023-01-30T05:28:50;100546.97;;;4.16;100.00
4767;BME280;2397;53.576;9.746;2023-01-30T05:31:17;100552.88;;;4.13;100.00
4767;BME280;2397;53.576;9.746;2023-01-30T05:33:46;100564.50;;;4.05;100.00
4767;BME280;2397;53.576;9.746;2023-01-30T05:36:14;100545.56;;;4.00;100.00
4767;BME280;2397;53.576;9.746;2023-01-30T05:38:42;100549.78;;;3.99;100.00
4767;BME280;2397;53.576;9.746;2023-01-30T05:41:10;100555.47;;;3.92;100.00
4767;BME280;2397;53.576;9.746;2023-01-30T05:43:37;100550.41;;;3.94;100.00
4767;BME280;2397;53.576;9.746;2023-01-30T05:46:04;100546.81;;;3.89;100.00
4767;BME280;2397;53.576;9.746;2023-01-30T05:48:31;100555.31;;;3.87;100.00
4767;BME280;2397;53.576;9.746;2023-01-30T05:50:59;100542.34;;;3.83;100.00
4767;BME280;2397;53.576;9.746;2023-01-30T05:53:28;100558.44;;;3.80;100.00
4767;BME280;2397;53.576;9.746;2023-01-30T05:56:00;100546.50;;;3.79;100.00
4767;BME280;2397;53.576;9.746;2023-01-30T05:58:27;100550.78;;;3.80;100.00
4767;BME280;2397;53.576;9.746;2023-01-30T06:00:53;100535.88;;;3.70;100.00
4767;BME280;2397;53.576;9.746;2023-01-30T06:03:20;100534.03;;;3.66;100.00
4767;BME280;2397;53.576;9.746;2023-01-30T06:05:46;100536.72;;;3.69;100.00
4767;BME280;2397;53.576;9.746;2023-01-30T06:08:13;100547.06;;;3.72;100.00
4767;BME280;2397;53.576;9.746;2023-01-30T06:10:39;100540.88;;;3.67;100.00
4767;BME280;2397;53.576;9.746;2023-01-30T06:13:05;100547.59;;;3.63;100.00
4767;BME280;2397;53.576;9.746;2023-01-30T06:15:32;100550.16;;;3.63;100.00
4767;BME280;2397;53.576;9.746;2023-01-30T06:17:58;100551.78;;;3.61;100.00
4767;BME280;2397;53.576;9.746;2023-01-30T06:20:25;100549.03;;;3.57;100.00
4767;BME280;2397;53.576;9.746;2023-01-30T06:22:51;100549.03;;;3.57;100.00
4767;BME280;2397;53.576;9.746;2023-01-30T06:25:17;100552.31;;;3.53;100.00
4767;BME280;2397;53.576;9.746;2023-01-30T06:27:45;100556.59;;;3.54;100.00
4767;BME280;2397;53.576;9.746;2023-01-30T06:30:11;100560.78;;;3.51;100.00
4767;BME280;2397;53.576;9.746;2023-01-30T06:32:38;100560.78;;;3.51;100.00
4767;BME280;2397;53.576;9.746;2023-01-30T06:35:05;100562.28;;;3.46;100.00
4767;BME280;2397;53.576;9.746;2023-01-30T06:37:31;100561.41;;;3.46;100.00
4767;BME280;2397;53.576;9.746;2023-01-30T06:39:58;100562.94;;;3.41;100.00
4767;BME280;2397;53.576;9.746;2023-01-30T06:42:24;100560.31;;;3.39;100.00
4767;BME280;2397;53.576;9.746;2023-01-30T06:44:51;100560.31;;;3.39;100.00
4767;BME280;2397;53.576;9.746;2023-01-30T06:47:17;100564.66;;;3.42;100.00
4767;BME280;2397;53.576;9.746;2023-01-30T06:49:43;100557.16;;;3.46;100.00
4767;BME280;2397;53.576;9.746;2023-01-30T06:52:10;100573.53;;;3.50;100.00
4767;BME280;2397;53.576;9.746;2023-01-30T06:54:36;100571.81;;;3.50;100.00
4767;BME280;2397;53.576;9.746;2023-01-30T06:57:03;100568.53;;;3.53;100.00
4767;BME280;2397;53.576;9.746;2023-01-30T06:59:29;100562.41;;;3.49;100.00
4767;BME280;2397;53.576;9.746;2023-01-30T07:01:56;100564.91;;;3.48;100.00
4767;BME280;2397;53.576;9.746;2023-01-30T07:04:22;100574.38;;;3.50;100.00
4767;BME280;2397;53.576;9.746;2023-01-30T07:06:49;100574.50;;;3.54;100.00
4767;BME280;2397;53.576;9.746;2023-01-30T07:09:15;100568.41;;;3.50;100.00
4767;BME280;2397;53.576;9.746;2023-01-30T07:11:42;100576.13;;;3.51;100.00
4767;BME280;2397;53.576;9.746;2023-01-30T07:14:08;100578.75;;;3.53;100.00
4767;BME280;2397;53.576;9.746;2023-01-30T07:16:35;100581.44;;;3.56;100.00
4767;BME280;2397;53.576;9.746;2023-01-30T07:19:01;100572.06;;;3.57;100.00
4767;BME280;2397;53.576;9.746;2023-01-30T07:21:27;100573.06;;;3.60;100.00
4767;BME280;2397;53.576;9.746;2023-01-30T07:23:54;100574.50;;;3.54;100.00
4767;BME280;2397;53.576;9.746;2023-01-30T07:26:20;100567.66;;;3.53;100.00
4767;BME280;2397;53.576;9.746;2023-01-30T07:28:47;100558.16;;;3.50;100.00
4767;BME280;2397;53.576;9.746;2023-01-30T07:31:13;100570.16;;;3.51;100.00
4767;BME280;2397;53.576;9.746;2023-01-30T07:33:40;100570.78;;;3.45;100.00
4767;BME280;2397;53.576;9.746;2023-01-30T07:36:06;100565.53;;;3.42;100.00
4767;BME280;2397;53.576;9.746;2023-01-30T07:38:33;100562.22;;;3.45;100.00
4767;BME280;2397;53.576;9.746;2023-01-30T07:40:59;100564.97;;;3.49;100.00
4767;BME280;2397;53.576;9.746;2023-01-30T07:43:26;100570.63;;;3.63;100.00
4767;BME280;2397;53.576;9.746;2023-01-30T07:45:52;100566.38;;;3.64;100.00
4767;BME280;2397;53.576;9.746;2023-01-30T07:48:19;100565.63;;;3.66;100.00
4767;BME280;2397;53.576;9.746;2023-01-30T07:50:45;100559.00;;;3.72;100.00
4767;BME280;2397;53.576;9.746;2023-01-30T07:53:14;100563.41;;;3.76;100.00
4767;BME280;2397;53.576;9.746;2023-01-30T07:55:41;100568.59;;;3.77;100.00
4767;BME280;2397;53.576;9.746;2023-01-30T07:58:11;100571.09;;;3.76;100.00
4767;BME280;2397;53.576;9.746;2023-01-30T08:00:38;100563.56;;;3.80;100.00
4767;BME280;2397;53.576;9.746;2023-01-30T08:03:05;100566.28;;;3.83;100.00
4767;BME280;2397;53.576;9.746;2023-01-30T08:05:31;100567.16;;;3.84;100.00
4767;BME280;2397;53.576;9.746;2023-01-30T08:07:57;100576.69;;;3.88;100.00
4767;BME280;2397;53.576;9.746;2023-01-30T08:10:25;100583.44;;;3.86;100.00
4767;BME280;2397;53.576;9.746;2023-01-30T08:12:52;100588.59;;;3.87;100.00
4767;BME280;2397;53.576;9.746;2023-01-30T08:15:18;100563.00;;;3.87;100.00
4767;BME280;2397;53.576;9.746;2023-01-30T08:17:55;100579.88;;;3.82;100.00
4767;BME280;2397;53.576;9.746;2023-01-30T08:20:22;100570.44;;;3.81;100.00
4767;BME280;2397;53.576;9.746;2023-01-30T08:22:49;100571.50;;;3.86;100.00
4767;BME280;2397;53.576;9.746;2023-01-30T08:25:16;100590.19;;;3.84;100.00
4767;BME280;2397;53.576;9.746;2023-01-30T08:27:42;100584.44;;;3.90;100.00
4767;BME280;2397;53.576;9.746;2023-01-30T08:30:10;100576.16;;;3.97;100.00
4767;BME280;2397;53.576;9.746;2023-01-30T08:32:37;100578.84;;;4.00;100.00
4767;BME280;2397;53.576;9.746;2023-01-30T08:35:04;100577.91;;;3.98;100.00
4767;BME280;2397;53.576;9.746;2023-01-30T08:37:30;100590.94;;;4.04;100.00
4767;BME280;2397;53.576;9.746;2023-01-30T08:39:57;100585.75;;;4.02;100.00
4767;BME280;2397;53.576;9.746;2023-01-30T08:42:23;100586.81;;;4.08;100.00
4767;BME280;2397;53.576;9.746;2023-01-30T08:44:50;100586.00;;;4.09;100.00
4767;BME280;2397;53.576;9.746;2023-01-30T08:47:16;100588.56;;;4.09;100.00
4767;BME280;2397;53.576;9.746;2023-01-30T08:49:42;100591.34;;;4.15;100.00
4767;BME280;2397;53.576;9.746;2023-01-30T08:52:09;100587.19;;;4.18;100.00
4767;BME280;2397;53.576;9.746;2023-01-30T08:54:35;100584.59;;;4.17;100.00
4767;BME280;2397;53.576;9.746;2023-01-30T08:57:02;100586.56;;;4.24;100.00
4767;BME280;2397;53.576;9.746;2023-01-30T08:59:28;100585.59;;;4.20;100.00
4767;BME280;2397;53.576;9.746;2023-01-30T09:01:55;100580.38;;;4.19;100.00
4767;BME280;2397;53.576;9.746;2023-01-30T09:04:21;100590.47;;;4.14;100.00
4767;BME280;2397;53.576;9.746;2023-01-30T09:06:50;100573.47;;;4.16;100.00
4767;BME280;2397;53.576;9.746;2023-01-30T09:09:16;100568.19;;;4.12;100.00
4767;BME280;2397;53.576;9.746;2023-01-30T09:11:43;100577.19;;;4.02;100.00
4767;BME280;2397;53.576;9.746;2023-01-30T09:14:09;100565.97;;;3.98;100.00
4767;BME280;2397;53.576;9.746;2023-01-30T09:16:36;100571.59;;;4.12;100.00
4767;BME280;2397;53.576;9.746;2023-01-30T09:19:02;100576.66;;;4.11;100.00
4767;BME280;2397;53.576;9.746;2023-01-30T09:21:28;100578.47;;;4.13;100.00
4767;BME280;2397;53.576;9.746;2023-01-30T09:23:57;100571.81;;;4.18;100.00
4767;BME280;2397;53.576;9.746;2023-01-30T09:26:23;100574.44;;;4.20;100.00
4767;BME280;2397;53.576;9.746;2023-01-30T09:28:50;100566.22;;;4.29;100.00
4767;BME280;2397;53.576;9.746;2023-01-30T09:31:16;100564.03;;;4.39;100.00
4767;BME280;2397;53.576;9.746;2023-01-30T09:33:43;100557.91;;;4.60;100.00
4767;BME280;2397;53.576;9.746;2023-01-30T09:36:09;100563.88;;;4.59;100.00
4767;BME280;2397;53.576;9.746;2023-01-30T09:38:35;100566.44;;;4.59;100.00
4767;BME280;2397;53.576;9.746;2023-01-30T09:44:04;100546.03;;;4.88;100.00
4767;BME280;2397;53.576;9.746;2023-01-30T09:46:47;100549.53;;;4.90;100.00
4767;BME280;2397;53.576;9.746;2023-01-30T09:55:26;100535.44;;;4.77;100.00
4767;BME280;2397;53.576;9.746;2023-01-30T09:57:53;100522.41;;;4.71;100.00
4767;BME280;2397;53.576;9.746;2023-01-30T10:00:35;100512.06;;;4.68;100.00
4767;BME280;2397;53.576;9.746;2023-01-30T10:03:09;100510.31;;;4.67;100.00
4767;BME280;2397;53.576;9.746;2023-01-30T10:05:42;100499.06;;;4.63;100.00
4767;BME280;2397;53.576;9.746;2023-01-30T10:11:15;100510.16;;;4.62;100.00
4767;BME280;2397;53.576;9.746;2023-01-30T10:16:53;100476.44;;;4.51;100.00
4767;BME280;2397;53.576;9.746;2023-01-30T10:24:57;100488.50;;;4.54;100.00
4767;BME280;2397;53.576;9.746;2023-01-30T10:27:24;100501.25;;;4.52;100.00
4767;BME280;2397;53.576;9.746;2023-01-30T10:29:53;100513.06;;;4.47;100.00
4767;BME280;2397;53.576;9.746;2023-01-30T10:32:26;100503.94;;;4.55;100.00
4767;BME280;2397;53.576;9.746;2023-01-30T10:34:58;100492.66;;;4.76;100.00
4767;BME280;2397;53.576;9.746;2023-01-30T10:37:29;100479.16;;;5.09;100.00
4767;BME280;2397;53.576;9.746;2023-01-30T10:40:22;100479.84;;;5.31;100.00
4767;BME280;2397;53.576;9.746;2023-01-30T10:43:01;100506.31;;;5.30;100.00
4767;BME280;2397;53.576;9.746;2023-01-30T10:48:30;100496.66;;;4.93;100.00
4767;BME280;2397;53.576;9.746;2023-01-30T10:51:24;100488.13;;;4.69;100.00
4767;BME280;2397;53.576;9.746;2023-01-30T10:54:10;100537.81;;;4.47;100.00
4767;BME280;2397;53.576;9.746;2023-01-30T10:59:23;100575.63;;;3.83;100.00
4767;BME280;2397;53.576;9.746;2023-01-30T11:02:20;100564.44;;;3.58;100.00
4767;BME280;2397;53.576;9.746;2023-01-30T11:04:56;100555.88;;;3.35;100.00
4767;BME280;2397;53.576;9.746;2023-01-30T11:07:24;100572.97;;;3.15;100.00
4767;BME280;2397;53.576;9.746;2023-01-30T11:09:50;100578.56;;;3.06;100.00
4767;BME280;2397;53.576;9.746;2023-01-30T11:12:17;100560.06;;;2.91;100.00
4767;BME280;2397;53.576;9.746;2023-01-30T11:14:56;100560.13;;;2.92;100.00
4767;BME280;2397;53.576;9.746;2023-01-30T11:17:34;100575.09;;;2.83;100.00
4767;BME280;2397;53.576;9.746;2023-01-30T11:20:12;100579.50;;;2.87;100.00
4767;BME280;2397;53.576;9.746;2023-01-30T11:25:20;100560.78;;;2.88;100.00
4767;BME280;2397;53.576;9.746;2023-01-30T11:27:55;100570.16;;;2.88;100.00
4767;BME280;2397;53.576;9.746;2023-01-30T11:30:28;100567.66;;;2.89;100.00
4767;BME280;2397;53.576;9.746;2023-01-30T11:33:34;100575.53;;;2.94;100.00
4767;BME280;2397;53.576;9.746;2023-01-30T11:36:08;100569.66;;;2.96;100.00
4767;BME280;2397;53.576;9.746;2023-01-30T11:38:59;100575.97;;;3.05;100.00
4767;BME280;2397;53.576;9.746;2023-01-30T11:41:26;100570.53;;;3.18;100.00
4767;BME280;2397;53.576;9.746;2023-01-30T11:44:01;100567.88;;;3.36;100.00
4767;BME280;2397;53.576;9.746;2023-01-30T11:46:33;100564.25;;;3.54;100.00
4767;BME280;2397;53.576;9.746;2023-01-30T11:49:04;100558.22;;;3.74;100.00
4767;BME280;2397;53.576;9.746;2023-01-30T11:51:57;100543.34;;;3.86;100.00
4767;BME280;2397;53.576;9.746;2023-01-30T11:54:30;100551.25;;;3.93;100.00
4767;BME280;2397;53.576;9.746;2023-01-30T11:57:02;100530.28;;;4.03;100.00
4767;BME280;2397;53.576;9.746;2023-01-30T11:59:33;100534.63;;;4.05;100.00
4767;BME280;2397;53.576;9.746;2023-01-30T12:02:15;100527.00;;;4.07;100.00
4767;BME280;2397;53.576;9.746;2023-01-30T12:04:44;100519.94;;;4.24;100.00
4767;BME280;2397;53.576;9.746;2023-01-30T12:07:23;100515.69;;;4.25;100.00
4767;BME280;2397;53.576;9.746;2023-01-30T12:09:51;100515.25;;;4.12;100.00
4767;BME280;2397;53.576;9.746;2023-01-30T12:12:42;100521.88;;;4.07;100.00
4767;BME280;2397;53.576;9.746;2023-01-30T12:15:21;100520.03;;;4.03;100.00
4767;BME280;2397;53.576;9.746;2023-01-30T12:18:28;100516.22;;;3.92;100.00
4767;BME280;2397;53.576;9.746;2023-01-30T12:21:00;100515.34;;;3.91;100.00
4767;BME280;2397;53.576;9.746;2023-01-30T12:26:15;100537.16;;;3.81;100.00
4767;BME280;2397;53.576;9.746;2023-01-30T12:28:52;100534.38;;;3.75;100.00
4767;BME280;2397;53.576;9.746;2023-01-30T12:31:34;100529.59;;;3.84;100.00
4767;BME280;2397;53.576;9.746;2023-01-30T12:34:02;100542.81;;;3.95;100.00
4767;BME280;2397;53.576;9.746;2023-01-30T12:39:50;100537.38;;;3.87;100.00
4767;BME280;2397;53.576;9.746;2023-01-30T12:50:56;100532.78;;;4.50;100.00
4767;BME280;2397;53.576;9.746;2023-01-30T12:53:34;100528.84;;;4.85;100.00
4767;BME280;2397;53.576;9.746;2023-01-30T12:56:22;100550.84;;;5.04;100.00
4767;BME280;2397;53.576;9.746;2023-01-30T13:01:54;100554.03;;;5.23;100.00
4767;BME280;2397;53.576;9.746;2023-01-30T13:04:42;100557.47;;;5.23;100.00
4767;BME280;2397;53.576;9.746;2023-01-30T13:07:36;100575.31;;;5.20;100.00
4767;BME280;2397;53.576;9.746;2023-01-30T13:13:12;100568.97;;;5.09;100.00
4767;BME280;2397;53.576;9.746;2023-01-30T13:15:58;100573.44;;;5.15;100.00
4767;BME280;2397;53.576;9.746;2023-01-30T13:18:52;100575.28;;;5.19;100.00
4767;BME280;2397;53.576;9.746;2023-01-30T13:21:45;100566.50;;;5.12;100.00
4767;BME280;2397;53.576;9.746;2023-01-30T13:24:23;100589.72;;;5.15;100.00
4767;BME280;2397;53.576;9.746;2023-01-30T13:26:53;100568.09;;;5.08;100.00
4767;BME280;2397;53.576;9.746;2023-01-30T13:29:36;100571.63;;;5.12;100.00
4767;BME280;2397;53.576;9.746;2023-01-30T13:32:12;100581.94;;;5.14;100.00
4767;BME280;2397;53.576;9.746;2023-01-30T13:34:43;100591.16;;;5.07;100.00
4767;BME280;2397;53.576;9.746;2023-01-30T13:37:15;100598.84;;;5.07;100.00
4767;BME280;2397;53.576;9.746;2023-01-30T13:40:15;100588.81;;;5.15;100.00
4767;BME280;2397;53.576;9.746;2023-01-30T13:42:48;100591.03;;;5.30;100.00
4767;BME280;2397;53.576;9.746;2023-01-30T13:45:19;100584.84;;;5.23;100.00
4767;BME280;2397;53.576;9.746;2023-01-30T13:48:09;100620.84;;;5.26;100.00
4767;BME280;2397;53.576;9.746;2023-01-30T13:56:33;100653.88;;;5.15;100.00
4767;BME280;2397;53.576;9.746;2023-01-30T13:59:20;100665.69;;;5.12;100.00
4767;BME280;2397;53.576;9.746;2023-01-30T14:12:42;100682.81;;;5.11;100.00
4767;BME280;2397;53.576;9.746;2023-01-30T14:20:29;100691.63;;;5.19;100.00
4767;BME280;2397;53.576;9.746;2023-01-30T14:22:58;100705.59;;;5.27;100.00
4767;BME280;2397;53.576;9.746;2023-01-30T14:30:52;100704.16;;;5.36;100.00
4767;BME280;2397;53.576;9.746;2023-01-30T14:38:25;100773.66;;;5.40;100.00
4767;BME280;2397;53.576;9.746;2023-01-30T14:51:25;100786.63;;;5.45;100.00
4767;BME280;2397;53.576;9.746;2023-01-30T14:54:00;100800.44;;;5.49;100.00
4767;BME280;2397;53.576;9.746;2023-01-30T14:56:41;100814.97;;;5.48;100.00
4767;BME280;2397;53.576;9.746;2023-01-30T15:04:37;100836.22;;;5.44;100.00
4767;BME280;2397;53.576;9.746;2023-01-30T15:07:16;100835.97;;;5.36;100.00
4767;BME280;2397;53.576;9.746;2023-01-30T15:09:51;100868.44;;;5.36;100.00
4767;BME280;2397;53.576;9.746;2023-01-30T15:15:38;100866.34;;;5.25;100.00
4767;BME280;2397;53.576;9.746;2023-01-30T15:18:35;100883.03;;;5.37;100.00